sensor_id;sensor_type;location;lat;lon;timestamp;P1;durP1;ratioP1;P2;durP2;ratioP2
14768;SDS011;7476;49.404;11.152;2022-08-21T00:00:48;8.87;;;6.73;;
14768;SDS011;7476;49.404;11.152;2022-08-21T00:03:15;10.63;;;6.43;;
14768;SDS011;7476;49.404;11.152;2022-08-21T00:05:42;10.23;;;6.13;;
14768;SDS011;7476;49.404;11.152;2022-08-21T00:08:12;6.60;;;5.67;;
14768;SDS011;7476;49.404;11.152;2022-08-21T00:10:41;6.83;;;6.10;;
14768;SDS011;7476;49.404;11.152;2022-08-21T00:13:08;8.30;;;6.63;;
14768;SDS011;7476;49.404;11.152;2022-08-21T00:15:37;8.43;;;6.50;;
14768;SDS011;7476;49.404;11.152;2022-08-21T00:18:06;9.77;;;6.47;;
14768;SDS011;7476;49.404;11.152;2022-08-21T00:20:35;7.30;;;6.13;;
14768;SDS011;7476;49.404;11.152;2022-08-21T00:23:03;7.90;;;6.50;;
14768;SDS011;7476;49.404;11.152;2022-08-21T00:25:30;8.13;;;5.60;;
14768;SDS011;7476;49.404;11.152;2022-08-21T00:27:58;6.33;;;5.73;;
14768;SDS011;7476;49.404;11.152;2022-08-21T00:30:26;6.83;;;5.90;;
14768;SDS011;7476;49.404;11.152;2022-08-21T00:32:54;7.07;;;5.97;;
14768;SDS011;7476;49.404;11.152;2022-08-21T00:35:23;6.23;;;5.63;;
14768;SDS011;7476;49.404;11.152;2022-08-21T00:37:51;7.03;;;6.33;;
14768;SDS011;7476;49.404;11.152;2022-08-21T00:40:22;6.53;;;5.93;;
14768;SDS011;7476;49.404;11.152;2022-08-21T00:42:51;8.13;;;6.57;;
14768;SDS011;7476;49.404;11.152;2022-08-21T00:45:19;11.23;;;6.70;;
14768;SDS011;7476;49.404;11.152;2022-08-21T00:47:46;7.17;;;6.47;;
14768;SDS011;7476;49.404;11.152;2022-08-21T00:50:13;7.37;;;6.50;;
14768;SDS011;7476;49.404;11.152;2022-08-21T00:52:40;6.60;;;5.97;;
14768;SDS011;7476;49.404;11.152;2022-08-21T00:55:08;6.80;;;6.10;;
14768;SDS011;7476;49.404;11.152;2022-08-21T00:57:38;6.50;;;5.87;;
14768;SDS011;7476;49.404;11.152;2022-08-21T01:00:10;8.40;;;5.70;;
14768;SDS011;7476;49.404;11.152;2022-08-21T01:02:43;8.03;;;6.20;;
14768;SDS011;7476;49.404;11.152;2022-08-21T01:05:10;6.47;;;5.50;;
14768;SDS011;7476;49.404;11.152;2022-08-21T01:07:37;6.53;;;5.50;;
14768;SDS011;7476;49.404;11.152;2022-08-21T01:10:05;6.27;;;5.67;;
14768;SDS011;7476;49.404;11.152;2022-08-21T01:12:33;8.67;;;6.40;;
14768;SDS011;7476;49.404;11.152;2022-08-21T01:15:00;6.80;;;5.37;;
14768;SDS011;7476;49.404;11.152;2022-08-21T01:17:28;7.23;;;6.43;;
14768;SDS011;7476;49.404;11.152;2022-08-21T01:19:58;7.13;;;5.77;;
14768;SDS011;7476;49.404;11.152;2022-08-21T01:22:26;6.77;;;5.93;;
14768;SDS011;7476;49.404;11.152;2022-08-21T01:24:53;8.73;;;5.60;;
14768;SDS011;7476;49.404;11.152;2022-08-21T01:27:20;8.03;;;6.67;;
14768;SDS011;7476;49.404;11.152;2022-08-21T01:29:49;8.63;;;6.30;;
14768;SDS011;7476;49.404;11.152;2022-08-21T01:32:20;10.43;;;6.70;;
14768;SDS011;7476;49.404;11.152;2022-08-21T01:34:48;6.77;;;5.70;;
14768;SDS011;7476;49.404;11.152;2022-08-21T01:37:16;6.63;;;5.90;;
14768;SDS011;7476;49.404;11.152;2022-08-21T01:39:45;7.80;;;5.67;;
14768;SDS011;7476;49.404;11.152;2022-08-21T01:42:12;10.90;;;6.10;;
14768;SDS011;7476;49.404;11.152;2022-08-21T01:44:39;7.50;;;5.80;;
14768;SDS011;7476;49.404;11.152;2022-08-21T01:47:09;6.90;;;6.30;;
14768;SDS011;7476;49.404;11.152;2022-08-21T01:49:38;8.13;;;5.60;;
14768;SDS011;7476;49.404;11.152;2022-08-21T01:52:05;6.67;;;5.77;;
14768;SDS011;7476;49.404;11.152;2022-08-21T01:54:32;8.20;;;5.77;;
14768;SDS011;7476;49.404;11.152;2022-08-21T01:57:01;7.53;;;5.50;;
14768;SDS011;7476;49.404;11.152;2022-08-21T01:59:29;7.10;;;5.37;;
14768;SDS011;7476;49.404;11.152;2022-08-21T02:01:56;10.93;;;5.70;;
14768;SDS011;7476;49.404;11.152;2022-08-21T02:04:23;8.40;;;6.00;;
14768;SDS011;7476;49.404;11.152;2022-08-21T02:06:50;6.30;;;5.70;;
14768;SDS011;7476;49.404;11.152;2022-08-21T02:09:17;7.07;;;5.47;;
14768;SDS011;7476;49.404;11.152;2022-08-21T02:11:44;6.07;;;5.47;;
14768;SDS011;7476;49.404;11.152;2022-08-21T02:14:13;6.43;;;5.83;;
14768;SDS011;7476;49.404;11.152;2022-08-21T02:16:41;6.63;;;5.97;;
14768;SDS011;7476;49.404;11.152;2022-08-21T02:19:09;6.73;;;6.03;;
14768;SDS011;7476;49.404;11.152;2022-08-21T02:21:37;6.03;;;5.47;;
14768;SDS011;7476;49.404;11.152;2022-08-21T02:24:04;6.60;;;5.97;;
14768;SDS011;7476;49.404;11.152;2022-08-21T02:26:31;8.83;;;6.23;;
14768;SDS011;7476;49.404;11.152;2022-08-21T02:28:58;6.30;;;5.70;;
14768;SDS011;7476;49.404;11.152;2022-08-21T02:31:26;6.20;;;5.43;;
14768;SDS011;7476;49.404;11.152;2022-08-21T02:33:53;6.17;;;5.53;;
14768;SDS011;7476;49.404;11.152;2022-08-21T02:36:20;6.97;;;5.63;;
14768;SDS011;7476;49.404;11.152;2022-08-21T02:38:47;8.00;;;6.10;;
14768;SDS011;7476;49.404;11.152;2022-08-21T02:41:15;8.90;;;6.07;;
14768;SDS011;7476;49.404;11.152;2022-08-21T02:43:44;6.23;;;5.60;;
14768;SDS011;7476;49.404;11.152;2022-08-21T02:46:12;7.83;;;6.27;;
14768;SDS011;7476;49.404;11.152;2022-08-21T02:48:41;8.33;;;6.03;;
14768;SDS011;7476;49.404;11.152;2022-08-21T02:51:10;6.37;;;5.77;;
14768;SDS011;7476;49.404;11.152;2022-08-21T02:53:38;6.63;;;5.93;;
14768;SDS011;7476;49.404;11.152;2022-08-21T02:56:07;6.30;;;5.70;;
14768;SDS011;7476;49.404;11.152;2022-08-21T02:58:36;6.03;;;5.33;;
14768;SDS011;7476;49.404;11.152;2022-08-21T03:01:05;5.70;;;5.20;;
14768;SDS011;7476;49.404;11.152;2022-08-21T03:03:34;6.53;;;5.83;;
14768;SDS011;7476;49.404;11.152;2022-08-21T03:06:03;9.87;;;6.07;;
14768;SDS011;7476;49.404;11.152;2022-08-21T03:08:30;9.17;;;7.73;;
14768;SDS011;7476;49.404;11.152;2022-08-21T03:10:57;9.03;;;7.97;;
14768;SDS011;7476;49.404;11.152;2022-08-21T03:13:26;10.27;;;8.23;;
14768;SDS011;7476;49.404;11.152;2022-08-21T03:15:53;11.80;;;8.90;;
14768;SDS011;7476;49.404;11.152;2022-08-21T03:18:20;12.63;;;8.77;;
14768;SDS011;7476;49.404;11.152;2022-08-21T03:20:47;10.00;;;8.30;;
14768;SDS011;7476;49.404;11.152;2022-08-21T03:23:16;9.00;;;6.60;;
14768;SDS011;7476;49.404;11.152;2022-08-21T03:25:44;7.83;;;6.00;;
14768;SDS011;7476;49.404;11.152;2022-08-21T03:28:12;8.37;;;5.87;;
14768;SDS011;7476;49.404;11.152;2022-08-21T03:30:41;6.10;;;5.50;;
14768;SDS011;7476;49.404;11.152;2022-08-21T03:33:07;5.60;;;5.10;;
14768;SDS011;7476;49.404;11.152;2022-08-21T03:35:34;7.10;;;6.17;;
14768;SDS011;7476;49.404;11.152;2022-08-21T03:38:01;6.93;;;6.10;;
14768;SDS011;7476;49.404;11.152;2022-08-21T03:40:29;6.03;;;5.43;;
14768;SDS011;7476;49.404;11.152;2022-08-21T03:42:56;7.57;;;5.57;;
14768;SDS011;7476;49.404;11.152;2022-08-21T03:45:23;7.10;;;5.70;;
14768;SDS011;7476;49.404;11.152;2022-08-21T03:47:51;7.70;;;6.27;;
14768;SDS011;7476;49.404;11.152;2022-08-21T03:50:20;9.20;;;6.43;;
14768;SDS011;7476;49.404;11.152;2022-08-21T03:52:47;11.60;;;7.60;;
14768;SDS011;7476;49.404;11.152;2022-08-21T03:55:14;11.30;;;8.27;;
14768;SDS011;7476;49.404;11.152;2022-08-21T03:57:43;10.20;;;8.30;;
14768;SDS011;7476;49.404;11.152;2022-08-21T04:00:10;12.00;;;7.97;;
14768;SDS011;7476;49.404;11.152;2022-08-21T04:02:38;10.73;;;8.07;;
14768;SDS011;7476;49.404;11.152;2022-08-21T04:05:05;10.50;;;8.57;;
14768;SDS011;7476;49.404;11.152;2022-08-21T04:07:33;12.00;;;8.40;;
14768;SDS011;7476;49.404;11.152;2022-08-21T04:10:00;14.67;;;8.83;;
14768;SDS011;7476;49.404;11.152;2022-08-21T04:12:27;28.43;;;8.93;;
14768;SDS011;7476;49.404;11.152;2022-08-21T04:14:55;20.87;;;8.67;;
14768;SDS011;7476;49.404;11.152;2022-08-21T04:17:21;15.20;;;9.60;;
14768;SDS011;7476;49.404;11.152;2022-08-21T04:19:48;17.03;;;10.10;;
14768;SDS011;7476;49.404;11.152;2022-08-21T04:22:15;11.90;;;8.40;;
14768;SDS011;7476;49.404;11.152;2022-08-21T04:24:42;17.53;;;10.37;;
14768;SDS011;7476;49.404;11.152;2022-08-21T04:27:09;16.50;;;9.77;;
14768;SDS011;7476;49.404;11.152;2022-08-21T04:29:36;16.97;;;9.87;;
14768;SDS011;7476;49.404;11.152;2022-08-21T04:32:04;13.77;;;9.23;;
14768;SDS011;7476;49.404;11.152;2022-08-21T04:34:31;11.93;;;9.50;;
14768;SDS011;7476;49.404;11.152;2022-08-21T04:36:58;17.30;;;10.43;;
14768;SDS011;7476;49.404;11.152;2022-08-21T04:39:24;24.43;;;10.70;;
14768;SDS011;7476;49.404;11.152;2022-08-21T04:41:51;17.87;;;10.10;;
14768;SDS011;7476;49.404;11.152;2022-08-21T04:44:18;20.03;;;10.40;;
14768;SDS011;7476;49.404;11.152;2022-08-21T04:46:44;36.27;;;11.13;;
14768;SDS011;7476;49.404;11.152;2022-08-21T04:49:12;12.97;;;10.20;;
14768;SDS011;7476;49.404;11.152;2022-08-21T04:51:39;20.37;;;11.57;;
14768;SDS011;7476;49.404;11.152;2022-08-21T04:54:08;16.70;;;11.37;;
14768;SDS011;7476;49.404;11.152;2022-08-21T04:56:39;34.43;;;12.77;;
14768;SDS011;7476;49.404;11.152;2022-08-21T04:59:10;23.50;;;12.63;;
14768;SDS011;7476;49.404;11.152;2022-08-21T05:01:40;35.07;;;12.40;;
14768;SDS011;7476;49.404;11.152;2022-08-21T05:04:08;34.53;;;13.27;;
14768;SDS011;7476;49.404;11.152;2022-08-21T05:06:40;37.57;;;12.30;;
14768;SDS011;7476;49.404;11.152;2022-08-21T05:09:09;23.00;;;11.80;;
14768;SDS011;7476;49.404;11.152;2022-08-21T05:11:40;23.23;;;11.80;;
14768;SDS011;7476;49.404;11.152;2022-08-21T05:14:07;39.37;;;13.67;;
14768;SDS011;7476;49.404;11.152;2022-08-21T05:16:34;48.43;;;13.27;;
14768;SDS011;7476;49.404;11.152;2022-08-21T05:19:01;36.80;;;14.07;;
14768;SDS011;7476;49.404;11.152;2022-08-21T05:21:28;61.90;;;15.07;;
14768;SDS011;7476;49.404;11.152;2022-08-21T05:23:55;21.53;;;12.77;;
14768;SDS011;7476;49.404;11.152;2022-08-21T05:26:22;49.50;;;14.73;;
14768;SDS011;7476;49.404;11.152;2022-08-21T05:28:49;19.43;;;12.93;;
14768;SDS011;7476;49.404;11.152;2022-08-21T05:31:15;41.27;;;15.93;;
14768;SDS011;7476;49.404;11.152;2022-08-21T05:33:42;53.73;;;16.40;;
14768;SDS011;7476;49.404;11.152;2022-08-21T05:36:09;47.17;;;16.43;;
14768;SDS011;7476;49.404;11.152;2022-08-21T05:38:35;73.10;;;17.17;;
14768;SDS011;7476;49.404;11.152;2022-08-21T05:41:03;59.57;;;17.93;;
14768;SDS011;7476;49.404;11.152;2022-08-21T05:43:30;47.23;;;18.17;;
14768;SDS011;7476;49.404;11.152;2022-08-21T05:45:57;41.07;;;17.50;;
14768;SDS011;7476;49.404;11.152;2022-08-21T05:48:24;54.80;;;16.27;;
14768;SDS011;7476;49.404;11.152;2022-08-21T05:50:51;47.83;;;16.13;;
14768;SDS011;7476;49.404;11.152;2022-08-21T05:53:19;33.00;;;15.10;;
14768;SDS011;7476;49.404;11.152;2022-08-21T05:55:47;57.33;;;17.20;;
14768;SDS011;7476;49.404;11.152;2022-08-21T05:58:16;86.40;;;16.87;;
14768;SDS011;7476;49.404;11.152;2022-08-21T06:00:45;25.70;;;15.43;;
14768;SDS011;7476;49.404;11.152;2022-08-21T06:03:15;43.60;;;16.40;;
14768;SDS011;7476;49.404;11.152;2022-08-21T06:05:43;43.03;;;18.70;;
14768;SDS011;7476;49.404;11.152;2022-08-21T06:08:10;47.40;;;16.53;;
14768;SDS011;7476;49.404;11.152;2022-08-21T06:10:37;33.93;;;17.37;;
14768;SDS011;7476;49.404;11.152;2022-08-21T06:13:04;57.00;;;18.73;;
14768;SDS011;7476;49.404;11.152;2022-08-21T06:15:32;31.47;;;15.93;;
14768;SDS011;7476;49.404;11.152;2022-08-21T06:17:59;22.63;;;17.43;;
14768;SDS011;7476;49.404;11.152;2022-08-21T06:20:26;51.87;;;19.13;;
14768;SDS011;7476;49.404;11.152;2022-08-21T06:22:52;34.70;;;17.93;;
14768;SDS011;7476;49.404;11.152;2022-08-21T06:25:19;34.90;;;18.33;;
14768;SDS011;7476;49.404;11.152;2022-08-21T06:27:46;27.87;;;18.70;;
14768;SDS011;7476;49.404;11.152;2022-08-21T06:30:12;38.37;;;18.60;;
14768;SDS011;7476;49.404;11.152;2022-08-21T06:32:41;27.13;;;18.63;;
14768;SDS011;7476;49.404;11.152;2022-08-21T06:35:08;31.50;;;19.00;;
14768;SDS011;7476;49.404;11.152;2022-08-21T06:37:35;31.87;;;18.53;;
14768;SDS011;7476;49.404;11.152;2022-08-21T06:40:02;26.63;;;18.37;;
14768;SDS011;7476;49.404;11.152;2022-08-21T06:42:30;37.20;;;19.13;;
14768;SDS011;7476;49.404;11.152;2022-08-21T06:44:57;27.47;;;19.87;;
14768;SDS011;7476;49.404;11.152;2022-08-21T06:47:23;24.83;;;19.70;;
14768;SDS011;7476;49.404;11.152;2022-08-21T06:49:51;37.13;;;21.13;;
14768;SDS011;7476;49.404;11.152;2022-08-21T06:52:19;30.90;;;20.40;;
14768;SDS011;7476;49.404;11.152;2022-08-21T06:54:45;28.00;;;20.67;;
14768;SDS011;7476;49.404;11.152;2022-08-21T06:57:12;29.27;;;20.67;;
14768;SDS011;7476;49.404;11.152;2022-08-21T06:59:38;30.80;;;22.73;;
14768;SDS011;7476;49.404;11.152;2022-08-21T07:02:05;28.80;;;21.93;;
14768;SDS011;7476;49.404;11.152;2022-08-21T07:04:32;30.63;;;23.33;;
14768;SDS011;7476;49.404;11.152;2022-08-21T07:07:00;28.20;;;21.40;;
14768;SDS011;7476;49.404;11.152;2022-08-21T07:09:27;26.73;;;21.90;;
14768;SDS011;7476;49.404;11.152;2022-08-21T07:11:54;26.90;;;20.53;;
14768;SDS011;7476;49.404;11.152;2022-08-21T07:14:22;23.90;;;19.03;;
14768;SDS011;7476;49.404;11.152;2022-08-21T07:16:48;23.57;;;20.13;;
14768;SDS011;7476;49.404;11.152;2022-08-21T07:19:16;21.87;;;18.60;;
14768;SDS011;7476;49.404;11.152;2022-08-21T07:21:43;27.63;;;20.37;;
14768;SDS011;7476;49.404;11.152;2022-08-21T07:24:11;21.47;;;18.23;;
14768;SDS011;7476;49.404;11.152;2022-08-21T07:26:38;22.07;;;18.67;;
14768;SDS011;7476;49.404;11.152;2022-08-21T07:29:05;22.03;;;19.63;;
14768;SDS011;7476;49.404;11.152;2022-08-21T07:31:32;21.30;;;17.73;;
14768;SDS011;7476;49.404;11.152;2022-08-21T07:33:59;19.17;;;17.10;;
14768;SDS011;7476;49.404;11.152;2022-08-21T07:36:25;18.93;;;15.97;;
14768;SDS011;7476;49.404;11.152;2022-08-21T07:38:52;20.40;;;17.00;;
14768;SDS011;7476;49.404;11.152;2022-08-21T07:41:20;20.00;;;17.37;;
14768;SDS011;7476;49.404;11.152;2022-08-21T07:43:49;18.63;;;16.27;;
14768;SDS011;7476;49.404;11.152;2022-08-21T07:46:16;19.63;;;17.47;;
14768;SDS011;7476;49.404;11.152;2022-08-21T07:48:43;20.70;;;16.80;;
14768;SDS011;7476;49.404;11.152;2022-08-21T07:51:10;19.97;;;17.17;;
14768;SDS011;7476;49.404;11.152;2022-08-21T07:53:38;19.13;;;17.07;;
14768;SDS011;7476;49.404;11.152;2022-08-21T07:56:06;19.47;;;16.80;;
14768;SDS011;7476;49.404;11.152;2022-08-21T07:58:37;19.13;;;16.60;;
14768;SDS011;7476;49.404;11.152;2022-08-21T08:01:04;18.23;;;15.70;;
14768;SDS011;7476;49.404;11.152;2022-08-21T08:03:31;17.53;;;15.73;;
14768;SDS011;7476;49.404;11.152;2022-08-21T08:05:58;17.73;;;15.83;;
14768;SDS011;7476;49.404;11.152;2022-08-21T08:08:25;17.23;;;15.37;;
14768;SDS011;7476;49.404;11.152;2022-08-21T08:10:52;17.30;;;15.10;;
14768;SDS011;7476;49.404;11.152;2022-08-21T08:13:19;16.73;;;14.93;;
14768;SDS011;7476;49.404;11.152;2022-08-21T08:15:47;16.97;;;14.83;;
14768;SDS011;7476;49.404;11.152;2022-08-21T08:18:14;17.33;;;15.03;;
14768;SDS011;7476;49.404;11.152;2022-08-21T08:20:41;16.00;;;14.30;;
14768;SDS011;7476;49.404;11.152;2022-08-21T08:23:09;16.33;;;14.73;;
14768;SDS011;7476;49.404;11.152;2022-08-21T08:25:36;18.23;;;15.77;;
14768;SDS011;7476;49.404;11.152;2022-08-21T08:28:03;16.73;;;15.00;;
14768;SDS011;7476;49.404;11.152;2022-08-21T08:30:30;15.67;;;14.13;;
14768;SDS011;7476;49.404;11.152;2022-08-21T08:32:59;15.17;;;13.67;;
14768;SDS011;7476;49.404;11.152;2022-08-21T08:35:26;14.63;;;13.27;;
14768;SDS011;7476;49.404;11.152;2022-08-21T08:37:53;14.00;;;12.70;;
14768;SDS011;7476;49.404;11.152;2022-08-21T08:40:22;15.60;;;14.03;;
14768;SDS011;7476;49.404;11.152;2022-08-21T08:42:58;15.43;;;13.83;;
14768;SDS011;7476;49.404;11.152;2022-08-21T08:45:25;14.27;;;12.93;;
14768;SDS011;7476;49.404;11.152;2022-08-21T08:47:52;14.73;;;13.37;;
14768;SDS011;7476;49.404;11.152;2022-08-21T08:50:26;15.20;;;13.73;;
14768;SDS011;7476;49.404;11.152;2022-08-21T08:52:59;15.10;;;13.53;;
14768;SDS011;7476;49.404;11.152;2022-08-21T08:55:32;15.77;;;14.37;;
14768;SDS011;7476;49.404;11.152;2022-08-21T08:58:02;15.60;;;14.10;;
14768;SDS011;7476;49.404;11.152;2022-08-21T09:00:29;16.43;;;14.90;;
14768;SDS011;7476;49.404;11.152;2022-08-21T09:02:58;16.30;;;14.83;;
14768;SDS011;7476;49.404;11.152;2022-08-21T09:05:28;15.60;;;14.10;;
14768;SDS011;7476;49.404;11.152;2022-08-21T09:10:56;15.27;;;13.80;;
14768;SDS011;7476;49.404;11.152;2022-08-21T09:13:28;15.60;;;14.10;;
14768;SDS011;7476;49.404;11.152;2022-08-21T09:16:04;15.20;;;13.80;;
14768;SDS011;7476;49.404;11.152;2022-08-21T09:18:38;15.40;;;14.00;;
14768;SDS011;7476;49.404;11.152;2022-08-21T09:21:13;15.20;;;13.90;;
14768;SDS011;7476;49.404;11.152;2022-08-21T09:23:45;15.20;;;13.90;;
14768;SDS011;7476;49.404;11.152;2022-08-21T09:26:22;13.93;;;12.63;;
14768;SDS011;7476;49.404;11.152;2022-08-21T09:28:51;15.40;;;13.83;;
14768;SDS011;7476;49.404;11.152;2022-08-21T09:31:21;15.13;;;13.77;;
14768;SDS011;7476;49.404;11.152;2022-08-21T09:33:50;14.73;;;13.43;;
14768;SDS011;7476;49.404;11.152;2022-08-21T09:36:25;13.43;;;12.23;;
14768;SDS011;7476;49.404;11.152;2022-08-21T09:39:00;14.27;;;12.97;;
14768;SDS011;7476;49.404;11.152;2022-08-21T09:41:27;13.20;;;12.00;;
14768;SDS011;7476;49.404;11.152;2022-08-21T09:43:56;12.20;;;11.17;;
14768;SDS011;7476;49.404;11.152;2022-08-21T09:46:24;12.47;;;11.37;;
14768;SDS011;7476;49.404;11.152;2022-08-21T09:48:52;13.07;;;11.87;;
14768;SDS011;7476;49.404;11.152;2022-08-21T09:51:22;11.90;;;10.80;;
14768;SDS011;7476;49.404;11.152;2022-08-21T09:53:52;10.57;;;9.57;;
14768;SDS011;7476;49.404;11.152;2022-08-21T09:56:25;11.23;;;10.23;;
14768;SDS011;7476;49.404;11.152;2022-08-21T09:59:13;10.82;;;9.93;;
14768;SDS011;7476;49.404;11.152;2022-08-21T10:01:43;9.38;;;8.55;;
14768;SDS011;7476;49.404;11.152;2022-08-21T10:04:11;10.50;;;9.68;;
14768;SDS011;7476;49.404;11.152;2022-08-21T10:06:38;9.13;;;8.43;;
14768;SDS011;7476;49.404;11.152;2022-08-21T10:09:08;9.43;;;8.70;;
14768;SDS011;7476;49.404;11.152;2022-08-21T10:11:36;8.73;;;8.02;;
14768;SDS011;7476;49.404;11.152;2022-08-21T10:14:07;11.55;;;10.57;;
14768;SDS011;7476;49.404;11.152;2022-08-21T10:16:41;12.20;;;11.20;;
14768;SDS011;7476;49.404;11.152;2022-08-21T10:19:18;11.40;;;10.50;;
14768;SDS011;7476;49.404;11.152;2022-08-21T10:21:59;11.20;;;10.30;;
14768;SDS011;7476;49.404;11.152;2022-08-21T10:24:33;10.33;;;9.43;;
14768;SDS011;7476;49.404;11.152;2022-08-21T10:27:11;9.73;;;8.93;;
14768;SDS011;7476;49.404;11.152;2022-08-21T10:29:44;8.93;;;8.23;;
14768;SDS011;7476;49.404;11.152;2022-08-21T10:32:23;9.27;;;8.47;;
14768;SDS011;7476;49.404;11.152;2022-08-21T10:35:02;9.53;;;8.73;;
14768;SDS011;7476;49.404;11.152;2022-08-21T10:37:37;10.63;;;9.73;;
14768;SDS011;7476;49.404;11.152;2022-08-21T10:40:14;10.00;;;9.20;;
14768;SDS011;7476;49.404;11.152;2022-08-21T10:42:49;9.23;;;8.53;;
14768;SDS011;7476;49.404;11.152;2022-08-21T10:45:25;9.63;;;8.83;;
14768;SDS011;7476;49.404;11.152;2022-08-21T10:48:12;8.27;;;7.57;;
14768;SDS011;7476;49.404;11.152;2022-08-21T10:50:48;8.63;;;7.93;;
14768;SDS011;7476;49.404;11.152;2022-08-21T10:53:22;8.97;;;8.17;;
14768;SDS011;7476;49.404;11.152;2022-08-21T10:56:01;8.10;;;7.40;;
14768;SDS011;7476;49.404;11.152;2022-08-21T10:58:36;7.43;;;6.83;;
14768;SDS011;7476;49.404;11.152;2022-08-21T11:01:07;7.37;;;6.77;;
14768;SDS011;7476;49.404;11.152;2022-08-21T11:03:39;7.57;;;6.97;;
14768;SDS011;7476;49.404;11.152;2022-08-21T11:06:11;7.50;;;6.87;;
14768;SDS011;7476;49.404;11.152;2022-08-21T11:08:42;7.17;;;6.57;;
14768;SDS011;7476;49.404;11.152;2022-08-21T11:11:12;6.03;;;5.53;;
14768;SDS011;7476;49.404;11.152;2022-08-21T11:13:45;6.17;;;5.53;;
14768;SDS011;7476;49.404;11.152;2022-08-21T11:16:16;6.82;;;6.32;;
14768;SDS011;7476;49.404;11.152;2022-08-21T11:18:49;5.57;;;5.07;;
14768;SDS011;7476;49.404;11.152;2022-08-21T11:21:25;6.05;;;5.55;;
14768;SDS011;7476;49.404;11.152;2022-08-21T11:23:57;5.85;;;5.28;;
14768;SDS011;7476;49.404;11.152;2022-08-21T11:26:36;5.35;;;4.85;;
14768;SDS011;7476;49.404;11.152;2022-08-21T11:29:09;5.65;;;5.15;;
14768;SDS011;7476;49.404;11.152;2022-08-21T11:31:42;5.18;;;4.50;;
14768;SDS011;7476;49.404;11.152;2022-08-21T11:34:32;4.20;;;3.90;;
14768;SDS011;7476;49.404;11.152;2022-08-21T11:37:07;4.67;;;4.30;;
14768;SDS011;7476;49.404;11.152;2022-08-21T11:39:45;4.23;;;3.93;;
14768;SDS011;7476;49.404;11.152;2022-08-21T11:42:23;4.67;;;4.27;;
14768;SDS011;7476;49.404;11.152;2022-08-21T11:44:56;4.90;;;4.50;;
14768;SDS011;7476;49.404;11.152;2022-08-21T11:47:38;4.03;;;3.72;;
14768;SDS011;7476;49.404;11.152;2022-08-21T11:50:16;4.70;;;4.22;;
14768;SDS011;7476;49.404;11.152;2022-08-21T11:52:48;4.45;;;4.05;;
14768;SDS011;7476;49.404;11.152;2022-08-21T11:55:21;4.57;;;4.18;;
14768;SDS011;7476;49.404;11.152;2022-08-21T11:57:53;3.97;;;3.67;;
14768;SDS011;7476;49.404;11.152;2022-08-21T12:00:24;3.83;;;3.53;;
14768;SDS011;7476;49.404;11.152;2022-08-21T12:02:56;4.28;;;3.90;;
14768;SDS011;7476;49.404;11.152;2022-08-21T12:05:33;4.25;;;3.85;;
14768;SDS011;7476;49.404;11.152;2022-08-21T12:08:04;3.92;;;3.63;;
14768;SDS011;7476;49.404;11.152;2022-08-21T12:10:34;4.20;;;3.80;;
14768;SDS011;7476;49.404;11.152;2022-08-21T12:13:10;4.65;;;3.85;;
14768;SDS011;7476;49.404;11.152;2022-08-21T12:15:47;3.88;;;3.58;;
14768;SDS011;7476;49.404;11.152;2022-08-21T12:18:20;4.05;;;3.75;;
14768;SDS011;7476;49.404;11.152;2022-08-21T12:21:03;3.80;;;3.50;;
14768;SDS011;7476;49.404;11.152;2022-08-21T12:23:43;4.13;;;3.75;;
14768;SDS011;7476;49.404;11.152;2022-08-21T12:26:23;4.20;;;3.80;;
14768;SDS011;7476;49.404;11.152;2022-08-21T12:29:04;4.10;;;3.80;;
14768;SDS011;7476;49.404;11.152;2022-08-21T12:31:50;3.60;;;3.30;;
14768;SDS011;7476;49.404;11.152;2022-08-21T12:34:23;3.72;;;3.42;;
14768;SDS011;7476;49.404;11.152;2022-08-21T12:36:56;3.83;;;3.53;;
14768;SDS011;7476;49.404;11.152;2022-08-21T12:39:26;3.75;;;3.45;;
14768;SDS011;7476;49.404;11.152;2022-08-21T12:41:58;3.85;;;3.55;;
14768;SDS011;7476;49.404;11.152;2022-08-21T12:44:31;4.05;;;3.75;;
14768;SDS011;7476;49.404;11.152;2022-08-21T12:47:04;4.18;;;3.88;;
14768;SDS011;7476;49.404;11.152;2022-08-21T12:49:42;4.30;;;4.00;;
14768;SDS011;7476;49.404;11.152;2022-08-21T12:52:19;4.28;;;3.97;;
14768;SDS011;7476;49.404;11.152;2022-08-21T12:54:48;3.90;;;3.60;;
14768;SDS011;7476;49.404;11.152;2022-08-21T12:57:19;3.88;;;3.58;;
14768;SDS011;7476;49.404;11.152;2022-08-21T12:59:51;4.07;;;3.78;;
14768;SDS011;7476;49.404;11.152;2022-08-21T13:02:20;3.72;;;3.47;;
14768;SDS011;7476;49.404;11.152;2022-08-21T13:04:50;3.67;;;3.30;;
14768;SDS011;7476;49.404;11.152;2022-08-21T13:07:19;4.28;;;3.97;;
14768;SDS011;7476;49.404;11.152;2022-08-21T13:09:53;3.97;;;3.67;;
14768;SDS011;7476;49.404;11.152;2022-08-21T13:12:23;4.10;;;3.80;;
14768;SDS011;7476;49.404;11.152;2022-08-21T13:14:50;4.55;;;4.18;;
14768;SDS011;7476;49.404;11.152;2022-08-21T13:17:22;3.92;;;3.63;;
14768;SDS011;7476;49.404;11.152;2022-08-21T13:19:54;3.47;;;3.17;;
14768;SDS011;7476;49.404;11.152;2022-08-21T13:22:23;3.92;;;3.63;;
14768;SDS011;7476;49.404;11.152;2022-08-21T13:24:50;3.90;;;3.60;;
14768;SDS011;7476;49.404;11.152;2022-08-21T13:27:20;3.97;;;3.58;;
14768;SDS011;7476;49.404;11.152;2022-08-21T13:29:49;3.92;;;3.63;;
14768;SDS011;7476;49.404;11.152;2022-08-21T13:32:30;3.90;;;3.58;;
14768;SDS011;7476;49.404;11.152;2022-08-21T13:34:59;4.38;;;4.07;;
14768;SDS011;7476;49.404;11.152;2022-08-21T13:37:34;4.25;;;3.85;;
14768;SDS011;7476;49.404;11.152;2022-08-21T13:40:06;4.88;;;4.05;;
14768;SDS011;7476;49.404;11.152;2022-08-21T13:42:39;4.25;;;3.85;;
14768;SDS011;7476;49.404;11.152;2022-08-21T13:45:12;4.00;;;3.70;;
14768;SDS011;7476;49.404;11.152;2022-08-21T13:47:41;3.47;;;3.28;;
14768;SDS011;7476;49.404;11.152;2022-08-21T13:50:09;4.05;;;3.75;;
14768;SDS011;7476;49.404;11.152;2022-08-21T13:52:46;3.85;;;3.55;;
14768;SDS011;7476;49.404;11.152;2022-08-21T13:55:16;4.18;;;3.53;;
14768;SDS011;7476;49.404;11.152;2022-08-21T13:57:43;4.18;;;3.88;;
14768;SDS011;7476;49.404;11.152;2022-08-21T14:00:12;4.03;;;3.72;;
14768;SDS011;7476;49.404;11.152;2022-08-21T14:02:42;3.83;;;3.53;;
14768;SDS011;7476;49.404;11.152;2022-08-21T14:05:14;4.03;;;3.72;;
14768;SDS011;7476;49.404;11.152;2022-08-21T14:07:45;4.10;;;3.70;;
14768;SDS011;7476;49.404;11.152;2022-08-21T14:10:14;4.00;;;3.70;;
14768;SDS011;7476;49.404;11.152;2022-08-21T14:12:45;4.00;;;3.70;;
14768;SDS011;7476;49.404;11.152;2022-08-21T14:15:16;3.50;;;3.20;;
14768;SDS011;7476;49.404;11.152;2022-08-21T14:17:45;3.95;;;3.65;;
14768;SDS011;7476;49.404;11.152;2022-08-21T14:20:12;3.50;;;3.20;;
14768;SDS011;7476;49.404;11.152;2022-08-21T14:22:52;3.80;;;3.50;;
14768;SDS011;7476;49.404;11.152;2022-08-21T14:25:27;3.55;;;3.25;;
14768;SDS011;7476;49.404;11.152;2022-08-21T14:27:57;3.72;;;3.47;;
14768;SDS011;7476;49.404;11.152;2022-08-21T14:30:31;8.25;;;3.55;;
14768;SDS011;7476;49.404;11.152;2022-08-21T14:32:59;3.72;;;3.42;;
14768;SDS011;7476;49.404;11.152;2022-08-21T14:35:27;3.60;;;3.30;;
14768;SDS011;7476;49.404;11.152;2022-08-21T14:37:54;4.07;;;3.70;;
14768;SDS011;7476;49.404;11.152;2022-08-21T14:40:21;3.80;;;3.50;;
14768;SDS011;7476;49.404;11.152;2022-08-21T14:42:50;3.40;;;3.10;;
14768;SDS011;7476;49.404;11.152;2022-08-21T14:45:25;4.35;;;3.10;;
14768;SDS011;7476;49.404;11.152;2022-08-21T14:47:54;3.60;;;3.30;;
14768;SDS011;7476;49.404;11.152;2022-08-21T14:50:21;3.35;;;3.13;;
14768;SDS011;7476;49.404;11.152;2022-08-21T14:52:49;3.30;;;3.10;;